Terminal Aerodrome Forecast
Issued by NWS Los Angeles, CA

Home | Current Version | Previous Version | Text Only | Print | Product List | Glossary On
Versions: 1 2 3 4 5 6 7 8 9 10 11 12 13 14 15 16 17 18 19 20 21
000
FTUS46 KLOX 250531
TAFSMX
TAF
KSMX 250531Z 2506/2606 30008KT 6SM BR OVC015
     FM250800 VRB03KT 6SM BR OVC009
     FM251300 VRB03KT P6SM OVC012
     FM251800 30009KT P6SM SCT015 SCT250
     FM252100 30015KT P6SM SCT250
     FM260300 30008KT P6SM BKN012=

USA.gov is the U.S. government's official web portal to all federal, state and local government web resources and services.